West Point, Texas
Current Conditions -  °F | °C
As of 8:10 PM on Saturday 20 Dec 2014 (Local Time) from K3T5 Reporting Station
Haze Haze  
Wind Chill: 52°   Ceiling: 700
Heat Index: 52°   Visibility: 4mi
Dew Point: 51°   Wind: 3mph
Humidity: 97%   Direction: 90°E
Pressure: 30.17"   Gusts: NA
Location:  29.95°N, 97.04°W
Report Text: K3T5 210210Z AUTO 09003KT 4SM BR BKN007 OVC011 11/11 A3017 RMK AO2 T01110106
Loading
Personal Weather Stations






























Interactive Weather Map New forecast layout! Learn more

10-Day Weather Forecast

Advertisements
Track Severe Weather on mobile